sensor_id;sensor_type;location;lat;lon;timestamp;P1;durP1;ratioP1;P2;durP2;ratioP2
48363;SDS011;34170;54.364;18.582;2023-04-30T00:01:29;12.52;;;5.07;;
48363;SDS011;34170;54.364;18.582;2023-04-30T00:03:56;9.25;;;4.97;;
48363;SDS011;34170;54.364;18.582;2023-04-30T00:06:24;9.77;;;4.82;;
48363;SDS011;34170;54.364;18.582;2023-04-30T00:08:54;11.05;;;5.10;;
48363;SDS011;34170;54.364;18.582;2023-04-30T00:11:21;12.88;;;5.25;;
48363;SDS011;34170;54.364;18.582;2023-04-30T00:13:49;9.25;;;4.40;;
48363;SDS011;34170;54.364;18.582;2023-04-30T00:16:17;9.45;;;4.43;;
48363;SDS011;34170;54.364;18.582;2023-04-30T00:18:44;10.30;;;4.53;;
48363;SDS011;34170;54.364;18.582;2023-04-30T00:21:12;11.13;;;4.50;;
48363;SDS011;34170;54.364;18.582;2023-04-30T00:23:39;10.65;;;4.15;;
48363;SDS011;34170;54.364;18.582;2023-04-30T00:26:07;8.75;;;4.22;;
48363;SDS011;34170;54.364;18.582;2023-04-30T00:28:35;9.30;;;4.38;;
48363;SDS011;34170;54.364;18.582;2023-04-30T00:31:03;8.95;;;3.63;;
48363;SDS011;34170;54.364;18.582;2023-04-30T00:33:32;9.10;;;4.00;;
48363;SDS011;34170;54.364;18.582;2023-04-30T00:36:00;11.27;;;4.40;;
48363;SDS011;34170;54.364;18.582;2023-04-30T00:38:27;11.75;;;4.53;;
48363;SDS011;34170;54.364;18.582;2023-04-30T00:40:55;9.05;;;3.75;;
48363;SDS011;34170;54.364;18.582;2023-04-30T00:43:22;9.65;;;3.88;;
48363;SDS011;34170;54.364;18.582;2023-04-30T00:45:50;10.77;;;4.45;;
48363;SDS011;34170;54.364;18.582;2023-04-30T00:48:18;9.98;;;3.47;;
48363;SDS011;34170;54.364;18.582;2023-04-30T00:50:46;9.63;;;3.72;;
48363;SDS011;34170;54.364;18.582;2023-04-30T00:53:13;10.10;;;3.30;;
48363;SDS011;34170;54.364;18.582;2023-04-30T00:55:41;9.25;;;3.88;;
48363;SDS011;34170;54.364;18.582;2023-04-30T00:58:10;6.35;;;2.58;;
48363;SDS011;34170;54.364;18.582;2023-04-30T01:00:38;8.95;;;2.92;;
48363;SDS011;34170;54.364;18.582;2023-04-30T01:03:09;11.50;;;3.15;;
48363;SDS011;34170;54.364;18.582;2023-04-30T01:05:37;7.47;;;2.92;;
48363;SDS011;34170;54.364;18.582;2023-04-30T01:08:04;9.75;;;2.60;;
48363;SDS011;34170;54.364;18.582;2023-04-30T01:10:35;13.70;;;3.30;;
48363;SDS011;34170;54.364;18.582;2023-04-30T01:13:28;8.60;;;2.35;;
48363;SDS011;34170;54.364;18.582;2023-04-30T01:18:51;6.10;;;2.00;;
48363;SDS011;34170;54.364;18.582;2023-04-30T01:21:26;5.38;;;2.28;;
48363;SDS011;34170;54.364;18.582;2023-04-30T01:29:25;9.15;;;2.22;;
48363;SDS011;34170;54.364;18.582;2023-04-30T01:31:53;10.85;;;2.40;;
48363;SDS011;34170;54.364;18.582;2023-04-30T01:34:21;7.15;;;2.08;;
48363;SDS011;34170;54.364;18.582;2023-04-30T01:42:07;6.15;;;1.83;;
48363;SDS011;34170;54.364;18.582;2023-04-30T01:47:45;6.28;;;1.85;;
48363;SDS011;34170;54.364;18.582;2023-04-30T01:50:51;8.57;;;1.83;;
48363;SDS011;34170;54.364;18.582;2023-04-30T01:53:29;7.63;;;2.72;;
48363;SDS011;34170;54.364;18.582;2023-04-30T01:56:02;6.80;;;1.70;;
48363;SDS011;34170;54.364;18.582;2023-04-30T01:58:32;7.07;;;1.85;;
48363;SDS011;34170;54.364;18.582;2023-04-30T02:01:03;5.45;;;1.98;;
48363;SDS011;34170;54.364;18.582;2023-04-30T02:03:31;10.90;;;2.20;;
48363;SDS011;34170;54.364;18.582;2023-04-30T02:05:59;6.68;;;1.70;;
48363;SDS011;34170;54.364;18.582;2023-04-30T02:08:27;6.60;;;2.05;;
48363;SDS011;34170;54.364;18.582;2023-04-30T02:10:55;5.57;;;1.80;;
48363;SDS011;34170;54.364;18.582;2023-04-30T02:13:22;8.77;;;2.25;;
48363;SDS011;34170;54.364;18.582;2023-04-30T02:15:50;7.57;;;2.03;;
48363;SDS011;34170;54.364;18.582;2023-04-30T02:18:18;9.63;;;2.17;;
48363;SDS011;34170;54.364;18.582;2023-04-30T02:20:45;9.48;;;2.40;;
48363;SDS011;34170;54.364;18.582;2023-04-30T02:23:14;7.47;;;1.90;;
48363;SDS011;34170;54.364;18.582;2023-04-30T02:25:41;7.28;;;1.80;;
48363;SDS011;34170;54.364;18.582;2023-04-30T02:28:09;6.25;;;1.95;;
48363;SDS011;34170;54.364;18.582;2023-04-30T02:30:36;9.57;;;1.70;;
48363;SDS011;34170;54.364;18.582;2023-04-30T02:33:04;9.18;;;2.25;;
48363;SDS011;34170;54.364;18.582;2023-04-30T02:35:31;6.63;;;2.20;;
48363;SDS011;34170;54.364;18.582;2023-04-30T02:37:59;6.40;;;1.90;;
48363;SDS011;34170;54.364;18.582;2023-04-30T02:40:26;10.45;;;2.40;;
48363;SDS011;34170;54.364;18.582;2023-04-30T02:42:54;8.70;;;2.95;;
48363;SDS011;34170;54.364;18.582;2023-04-30T02:45:22;9.30;;;2.70;;
48363;SDS011;34170;54.364;18.582;2023-04-30T02:47:50;5.80;;;1.83;;
48363;SDS011;34170;54.364;18.582;2023-04-30T02:50:17;8.98;;;2.08;;
48363;SDS011;34170;54.364;18.582;2023-04-30T02:52:45;7.15;;;2.25;;
48363;SDS011;34170;54.364;18.582;2023-04-30T02:55:15;9.82;;;2.53;;
48363;SDS011;34170;54.364;18.582;2023-04-30T02:57:43;10.45;;;2.15;;
48363;SDS011;34170;54.364;18.582;2023-04-30T03:00:10;7.72;;;3.13;;
48363;SDS011;34170;54.364;18.582;2023-04-30T03:02:38;11.13;;;2.25;;
48363;SDS011;34170;54.364;18.582;2023-04-30T03:05:06;7.78;;;1.95;;
48363;SDS011;34170;54.364;18.582;2023-04-30T03:07:34;11.38;;;2.47;;
48363;SDS011;34170;54.364;18.582;2023-04-30T03:10:01;10.20;;;2.20;;
48363;SDS011;34170;54.364;18.582;2023-04-30T03:12:29;7.15;;;2.03;;
48363;SDS011;34170;54.364;18.582;2023-04-30T03:14:57;6.50;;;1.92;;
48363;SDS011;34170;54.364;18.582;2023-04-30T03:17:24;8.75;;;2.30;;
48363;SDS011;34170;54.364;18.582;2023-04-30T03:19:51;10.43;;;2.78;;
48363;SDS011;34170;54.364;18.582;2023-04-30T03:22:19;21.38;;;9.55;;
48363;SDS011;34170;54.364;18.582;2023-04-30T03:24:49;7.90;;;2.65;;
48363;SDS011;34170;54.364;18.582;2023-04-30T03:27:17;5.32;;;1.75;;
48363;SDS011;34170;54.364;18.582;2023-04-30T03:29:44;8.10;;;2.03;;
48363;SDS011;34170;54.364;18.582;2023-04-30T03:32:12;10.48;;;2.30;;
48363;SDS011;34170;54.364;18.582;2023-04-30T03:34:39;9.23;;;2.08;;
48363;SDS011;34170;54.364;18.582;2023-04-30T03:37:07;12.23;;;2.78;;
48363;SDS011;34170;54.364;18.582;2023-04-30T03:39:34;9.10;;;2.33;;
48363;SDS011;34170;54.364;18.582;2023-04-30T03:42:02;11.55;;;2.22;;
48363;SDS011;34170;54.364;18.582;2023-04-30T03:44:30;11.45;;;2.83;;
48363;SDS011;34170;54.364;18.582;2023-04-30T03:46:57;8.63;;;2.30;;
48363;SDS011;34170;54.364;18.582;2023-04-30T03:49:25;7.85;;;2.35;;
48363;SDS011;34170;54.364;18.582;2023-04-30T03:51:53;7.40;;;1.92;;
48363;SDS011;34170;54.364;18.582;2023-04-30T03:54:20;7.38;;;1.92;;
48363;SDS011;34170;54.364;18.582;2023-04-30T03:56:47;10.57;;;2.05;;
48363;SDS011;34170;54.364;18.582;2023-04-30T03:59:15;10.07;;;2.47;;
48363;SDS011;34170;54.364;18.582;2023-04-30T04:01:43;8.35;;;1.92;;
48363;SDS011;34170;54.364;18.582;2023-04-30T04:04:10;5.93;;;1.58;;
48363;SDS011;34170;54.364;18.582;2023-04-30T04:06:38;5.00;;;1.63;;
48363;SDS011;34170;54.364;18.582;2023-04-30T04:09:06;8.32;;;1.85;;
48363;SDS011;34170;54.364;18.582;2023-04-30T04:11:34;6.93;;;1.50;;
48363;SDS011;34170;54.364;18.582;2023-04-30T04:14:01;9.27;;;1.60;;
48363;SDS011;34170;54.364;18.582;2023-04-30T04:16:29;5.10;;;1.45;;
48363;SDS011;34170;54.364;18.582;2023-04-30T04:18:56;6.07;;;1.70;;
48363;SDS011;34170;54.364;18.582;2023-04-30T04:21:24;8.02;;;1.95;;
48363;SDS011;34170;54.364;18.582;2023-04-30T04:23:51;7.90;;;1.92;;
48363;SDS011;34170;54.364;18.582;2023-04-30T04:26:19;6.57;;;1.58;;
48363;SDS011;34170;54.364;18.582;2023-04-30T04:28:47;4.22;;;1.55;;
48363;SDS011;34170;54.364;18.582;2023-04-30T04:31:15;7.15;;;1.73;;
48363;SDS011;34170;54.364;18.582;2023-04-30T04:33:43;7.75;;;1.52;;
48363;SDS011;34170;54.364;18.582;2023-04-30T04:36:10;8.57;;;1.92;;
48363;SDS011;34170;54.364;18.582;2023-04-30T04:38:37;6.25;;;1.77;;
48363;SDS011;34170;54.364;18.582;2023-04-30T04:41:05;7.68;;;1.80;;
48363;SDS011;34170;54.364;18.582;2023-04-30T04:43:32;9.38;;;1.50;;
48363;SDS011;34170;54.364;18.582;2023-04-30T04:46:00;10.93;;;1.75;;
48363;SDS011;34170;54.364;18.582;2023-04-30T04:48:28;8.52;;;1.95;;
48363;SDS011;34170;54.364;18.582;2023-04-30T04:50:55;7.72;;;2.30;;
48363;SDS011;34170;54.364;18.582;2023-04-30T04:53:23;10.43;;;1.75;;
48363;SDS011;34170;54.364;18.582;2023-04-30T04:55:51;6.93;;;1.33;;
48363;SDS011;34170;54.364;18.582;2023-04-30T04:58:18;5.47;;;1.50;;
48363;SDS011;34170;54.364;18.582;2023-04-30T05:00:45;9.43;;;1.80;;
48363;SDS011;34170;54.364;18.582;2023-04-30T05:03:12;9.48;;;1.60;;
48363;SDS011;34170;54.364;18.582;2023-04-30T05:05:40;6.65;;;1.88;;
48363;SDS011;34170;54.364;18.582;2023-04-30T05:08:09;7.78;;;1.63;;
48363;SDS011;34170;54.364;18.582;2023-04-30T05:10:36;7.78;;;1.65;;
48363;SDS011;34170;54.364;18.582;2023-04-30T05:13:04;7.13;;;2.00;;
48363;SDS011;34170;54.364;18.582;2023-04-30T05:15:31;7.00;;;1.83;;
48363;SDS011;34170;54.364;18.582;2023-04-30T05:17:58;5.40;;;1.40;;
48363;SDS011;34170;54.364;18.582;2023-04-30T05:20:26;6.57;;;1.90;;
48363;SDS011;34170;54.364;18.582;2023-04-30T05:22:53;9.23;;;1.85;;
48363;SDS011;34170;54.364;18.582;2023-04-30T05:25:21;6.85;;;1.90;;
48363;SDS011;34170;54.364;18.582;2023-04-30T05:27:48;9.63;;;1.95;;
48363;SDS011;34170;54.364;18.582;2023-04-30T05:30:15;7.03;;;1.90;;
48363;SDS011;34170;54.364;18.582;2023-04-30T05:32:43;6.20;;;1.50;;
48363;SDS011;34170;54.364;18.582;2023-04-30T05:35:17;8.10;;;2.00;;
48363;SDS011;34170;54.364;18.582;2023-04-30T05:37:45;9.55;;;1.95;;
48363;SDS011;34170;54.364;18.582;2023-04-30T05:40:12;9.23;;;1.98;;
48363;SDS011;34170;54.364;18.582;2023-04-30T05:42:40;5.82;;;1.60;;
48363;SDS011;34170;54.364;18.582;2023-04-30T05:45:09;6.72;;;1.77;;
48363;SDS011;34170;54.364;18.582;2023-04-30T05:47:38;6.70;;;1.70;;
48363;SDS011;34170;54.364;18.582;2023-04-30T05:50:06;5.40;;;2.03;;
48363;SDS011;34170;54.364;18.582;2023-04-30T05:52:33;6.25;;;1.98;;
48363;SDS011;34170;54.364;18.582;2023-04-30T05:55:01;7.05;;;1.67;;
48363;SDS011;34170;54.364;18.582;2023-04-30T05:57:28;6.25;;;1.85;;
48363;SDS011;34170;54.364;18.582;2023-04-30T05:59:56;9.93;;;2.00;;
48363;SDS011;34170;54.364;18.582;2023-04-30T06:02:23;9.00;;;1.95;;
48363;SDS011;34170;54.364;18.582;2023-04-30T06:04:51;7.03;;;2.08;;
48363;SDS011;34170;54.364;18.582;2023-04-30T06:07:18;5.93;;;1.65;;
48363;SDS011;34170;54.364;18.582;2023-04-30T06:09:46;6.00;;;1.73;;
48363;SDS011;34170;54.364;18.582;2023-04-30T06:12:13;5.63;;;1.80;;
48363;SDS011;34170;54.364;18.582;2023-04-30T06:14:41;5.13;;;1.50;;
48363;SDS011;34170;54.364;18.582;2023-04-30T06:17:11;6.03;;;1.73;;
48363;SDS011;34170;54.364;18.582;2023-04-30T06:19:39;8.55;;;2.13;;
48363;SDS011;34170;54.364;18.582;2023-04-30T06:22:06;7.88;;;2.03;;
48363;SDS011;34170;54.364;18.582;2023-04-30T06:24:34;5.90;;;1.85;;
48363;SDS011;34170;54.364;18.582;2023-04-30T06:27:01;5.00;;;1.83;;
48363;SDS011;34170;54.364;18.582;2023-04-30T06:29:29;6.00;;;1.63;;
48363;SDS011;34170;54.364;18.582;2023-04-30T06:31:56;8.80;;;2.42;;
48363;SDS011;34170;54.364;18.582;2023-04-30T06:34:24;8.35;;;2.05;;
48363;SDS011;34170;54.364;18.582;2023-04-30T06:36:51;5.65;;;1.80;;
48363;SDS011;34170;54.364;18.582;2023-04-30T06:39:19;7.45;;;1.80;;
48363;SDS011;34170;54.364;18.582;2023-04-30T06:41:46;8.02;;;2.35;;
48363;SDS011;34170;54.364;18.582;2023-04-30T06:44:14;6.25;;;1.92;;
48363;SDS011;34170;54.364;18.582;2023-04-30T06:46:42;8.38;;;2.40;;
48363;SDS011;34170;54.364;18.582;2023-04-30T06:49:10;7.63;;;2.03;;
48363;SDS011;34170;54.364;18.582;2023-04-30T06:51:37;5.95;;;1.80;;
48363;SDS011;34170;54.364;18.582;2023-04-30T06:54:04;5.72;;;2.15;;
48363;SDS011;34170;54.364;18.582;2023-04-30T06:56:33;7.03;;;1.73;;
48363;SDS011;34170;54.364;18.582;2023-04-30T06:59:00;6.93;;;1.70;;
48363;SDS011;34170;54.364;18.582;2023-04-30T07:01:27;3.72;;;1.50;;
48363;SDS011;34170;54.364;18.582;2023-04-30T07:03:55;5.03;;;2.03;;
48363;SDS011;34170;54.364;18.582;2023-04-30T07:06:23;7.93;;;1.73;;
48363;SDS011;34170;54.364;18.582;2023-04-30T07:08:50;6.85;;;2.25;;
48363;SDS011;34170;54.364;18.582;2023-04-30T07:11:17;5.38;;;1.80;;
48363;SDS011;34170;54.364;18.582;2023-04-30T07:13:45;4.65;;;1.40;;
48363;SDS011;34170;54.364;18.582;2023-04-30T07:16:12;6.63;;;1.58;;
48363;SDS011;34170;54.364;18.582;2023-04-30T07:18:42;9.07;;;1.85;;
48363;SDS011;34170;54.364;18.582;2023-04-30T07:21:10;4.10;;;1.20;;
48363;SDS011;34170;54.364;18.582;2023-04-30T07:23:37;6.75;;;1.40;;
48363;SDS011;34170;54.364;18.582;2023-04-30T07:26:05;4.43;;;1.52;;
48363;SDS011;34170;54.364;18.582;2023-04-30T07:28:32;13.68;;;2.05;;
48363;SDS011;34170;54.364;18.582;2023-04-30T07:30:59;6.75;;;1.45;;
48363;SDS011;34170;54.364;18.582;2023-04-30T07:33:28;5.60;;;1.48;;
48363;SDS011;34170;54.364;18.582;2023-04-30T07:35:55;3.90;;;1.75;;
48363;SDS011;34170;54.364;18.582;2023-04-30T07:38:24;4.40;;;1.60;;
48363;SDS011;34170;54.364;18.582;2023-04-30T07:40:52;11.25;;;2.05;;
48363;SDS011;34170;54.364;18.582;2023-04-30T07:43:19;6.18;;;1.70;;
48363;SDS011;34170;54.364;18.582;2023-04-30T07:45:46;4.15;;;1.40;;
48363;SDS011;34170;54.364;18.582;2023-04-30T07:48:15;5.72;;;1.95;;
48363;SDS011;34170;54.364;18.582;2023-04-30T07:50:46;6.80;;;1.67;;
48363;SDS011;34170;54.364;18.582;2023-04-30T07:53:16;3.88;;;1.20;;
48363;SDS011;34170;54.364;18.582;2023-04-30T07:55:44;4.78;;;1.63;;
48363;SDS011;34170;54.364;18.582;2023-04-30T07:58:11;6.45;;;1.42;;
48363;SDS011;34170;54.364;18.582;2023-04-30T08:00:38;4.15;;;1.23;;
48363;SDS011;34170;54.364;18.582;2023-04-30T08:03:06;3.90;;;1.40;;
48363;SDS011;34170;54.364;18.582;2023-04-30T08:05:34;7.38;;;1.30;;
48363;SDS011;34170;54.364;18.582;2023-04-30T08:08:02;10.50;;;3.13;;
48363;SDS011;34170;54.364;18.582;2023-04-30T08:10:30;5.75;;;1.40;;
48363;SDS011;34170;54.364;18.582;2023-04-30T08:12:58;5.47;;;1.10;;
48363;SDS011;34170;54.364;18.582;2023-04-30T08:15:25;4.03;;;1.27;;
48363;SDS011;34170;54.364;18.582;2023-04-30T08:17:53;5.13;;;1.48;;
48363;SDS011;34170;54.364;18.582;2023-04-30T08:20:20;4.80;;;1.35;;
48363;SDS011;34170;54.364;18.582;2023-04-30T08:22:49;7.07;;;1.40;;
48363;SDS011;34170;54.364;18.582;2023-04-30T08:25:17;4.20;;;1.38;;
48363;SDS011;34170;54.364;18.582;2023-04-30T08:27:44;4.97;;;1.15;;
48363;SDS011;34170;54.364;18.582;2023-04-30T08:30:12;6.20;;;0.98;;
48363;SDS011;34170;54.364;18.582;2023-04-30T08:32:39;3.17;;;0.82;;
48363;SDS011;34170;54.364;18.582;2023-04-30T08:35:07;3.47;;;1.13;;
48363;SDS011;34170;54.364;18.582;2023-04-30T08:37:35;3.85;;;1.02;;
48363;SDS011;34170;54.364;18.582;2023-04-30T08:40:03;5.22;;;0.93;;
48363;SDS011;34170;54.364;18.582;2023-04-30T08:42:32;4.07;;;0.95;;
48363;SDS011;34170;54.364;18.582;2023-04-30T08:45:02;1.90;;;0.80;;
48363;SDS011;34170;54.364;18.582;2023-04-30T08:47:30;4.25;;;0.88;;
48363;SDS011;34170;54.364;18.582;2023-04-30T08:49:58;3.75;;;1.00;;
48363;SDS011;34170;54.364;18.582;2023-04-30T08:52:26;3.97;;;0.90;;
48363;SDS011;34170;54.364;18.582;2023-04-30T08:54:56;3.50;;;0.88;;
48363;SDS011;34170;54.364;18.582;2023-04-30T08:57:27;3.50;;;0.80;;
48363;SDS011;34170;54.364;18.582;2023-04-30T08:59:54;3.53;;;0.85;;
48363;SDS011;34170;54.364;18.582;2023-04-30T09:02:22;1.60;;;0.70;;
48363;SDS011;34170;54.364;18.582;2023-04-30T09:04:50;2.10;;;0.80;;
48363;SDS011;34170;54.364;18.582;2023-04-30T09:07:18;4.15;;;0.80;;
48363;SDS011;34170;54.364;18.582;2023-04-30T09:09:46;5.05;;;1.20;;
48363;SDS011;34170;54.364;18.582;2023-04-30T09:12:19;5.05;;;1.15;;
48363;SDS011;34170;54.364;18.582;2023-04-30T09:17:25;4.22;;;0.80;;
48363;SDS011;34170;54.364;18.582;2023-04-30T09:19:53;5.40;;;0.98;;
48363;SDS011;34170;54.364;18.582;2023-04-30T09:22:22;5.07;;;1.30;;
48363;SDS011;34170;54.364;18.582;2023-04-30T09:24:50;3.40;;;0.88;;
48363;SDS011;34170;54.364;18.582;2023-04-30T09:27:18;4.28;;;0.75;;
48363;SDS011;34170;54.364;18.582;2023-04-30T09:29:47;2.63;;;1.00;;
48363;SDS011;34170;54.364;18.582;2023-04-30T09:32:15;5.28;;;0.95;;
48363;SDS011;34170;54.364;18.582;2023-04-30T09:34:42;6.15;;;1.35;;
48363;SDS011;34170;54.364;18.582;2023-04-30T09:37:10;3.67;;;1.08;;
48363;SDS011;34170;54.364;18.582;2023-04-30T09:39:47;4.63;;;1.15;;
48363;SDS011;34170;54.364;18.582;2023-04-30T09:42:16;4.95;;;1.25;;
48363;SDS011;34170;54.364;18.582;2023-04-30T09:44:45;4.68;;;1.00;;
48363;SDS011;34170;54.364;18.582;2023-04-30T09:47:14;3.38;;;1.00;;
48363;SDS011;34170;54.364;18.582;2023-04-30T09:49:46;3.78;;;0.90;;
48363;SDS011;34170;54.364;18.582;2023-04-30T09:52:18;3.92;;;0.90;;
48363;SDS011;34170;54.364;18.582;2023-04-30T09:54:46;4.82;;;1.20;;
48363;SDS011;34170;54.364;18.582;2023-04-30T09:57:14;3.72;;;0.80;;
48363;SDS011;34170;54.364;18.582;2023-04-30T09:59:45;4.68;;;0.95;;
48363;SDS011;34170;54.364;18.582;2023-04-30T10:02:14;4.57;;;1.30;;
48363;SDS011;34170;54.364;18.582;2023-04-30T10:04:43;2.95;;;0.75;;
48363;SDS011;34170;54.364;18.582;2023-04-30T10:07:16;3.67;;;0.88;;
48363;SDS011;34170;54.364;18.582;2023-04-30T10:12:31;3.92;;;0.70;;
48363;SDS011;34170;54.364;18.582;2023-04-30T10:15:14;3.17;;;0.70;;
48363;SDS011;34170;54.364;18.582;2023-04-30T10:17:45;3.33;;;0.60;;
48363;SDS011;34170;54.364;18.582;2023-04-30T10:20:15;4.70;;;1.15;;
48363;SDS011;34170;54.364;18.582;2023-04-30T10:22:45;2.10;;;0.75;;
48363;SDS011;34170;54.364;18.582;2023-04-30T10:25:14;2.55;;;0.68;;
48363;SDS011;34170;54.364;18.582;2023-04-30T10:27:42;5.55;;;0.80;;
48363;SDS011;34170;54.364;18.582;2023-04-30T10:30:10;2.42;;;0.60;;
48363;SDS011;34170;54.364;18.582;2023-04-30T10:32:42;2.65;;;0.50;;
48363;SDS011;34170;54.364;18.582;2023-04-30T10:35:20;3.40;;;0.68;;
48363;SDS011;34170;54.364;18.582;2023-04-30T10:38:19;3.10;;;0.82;;
48363;SDS011;34170;54.364;18.582;2023-04-30T10:40:49;2.72;;;0.90;;
48363;SDS011;34170;54.364;18.582;2023-04-30T10:43:17;3.72;;;0.65;;
48363;SDS011;34170;54.364;18.582;2023-04-30T10:45:48;3.15;;;0.68;;
48363;SDS011;34170;54.364;18.582;2023-04-30T10:48:16;5.32;;;0.85;;
48363;SDS011;34170;54.364;18.582;2023-04-30T10:50:51;1.92;;;0.63;;
48363;SDS011;34170;54.364;18.582;2023-04-30T10:53:21;2.63;;;0.65;;
48363;SDS011;34170;54.364;18.582;2023-04-30T10:55:52;3.70;;;0.95;;
48363;SDS011;34170;54.364;18.582;2023-04-30T11:01:05;6.43;;;0.90;;
48363;SDS011;34170;54.364;18.582;2023-04-30T11:03:37;3.17;;;0.83;;
48363;SDS011;34170;54.364;18.582;2023-04-30T11:06:07;4.13;;;1.10;;
48363;SDS011;34170;54.364;18.582;2023-04-30T11:08:42;2.28;;;0.60;;
48363;SDS011;34170;54.364;18.582;2023-04-30T11:11:17;2.17;;;0.60;;
48363;SDS011;34170;54.364;18.582;2023-04-30T11:13:58;2.70;;;0.50;;
48363;SDS011;34170;54.364;18.582;2023-04-30T11:16:28;5.07;;;0.68;;
48363;SDS011;34170;54.364;18.582;2023-04-30T11:19:10;2.38;;;0.73;;
48363;SDS011;34170;54.364;18.582;2023-04-30T11:22:25;4.95;;;0.68;;
48363;SDS011;34170;54.364;18.582;2023-04-30T11:27:26;4.30;;;0.82;;
48363;SDS011;34170;54.364;18.582;2023-04-30T11:29:55;3.35;;;0.95;;
48363;SDS011;34170;54.364;18.582;2023-04-30T11:32:24;4.13;;;0.90;;
48363;SDS011;34170;54.364;18.582;2023-04-30T11:34:58;5.95;;;1.20;;
48363;SDS011;34170;54.364;18.582;2023-04-30T11:37:30;3.55;;;1.08;;
48363;SDS011;34170;54.364;18.582;2023-04-30T11:40:03;3.78;;;0.80;;
48363;SDS011;34170;54.364;18.582;2023-04-30T11:42:33;2.05;;;0.52;;
48363;SDS011;34170;54.364;18.582;2023-04-30T11:45:08;4.25;;;0.70;;
48363;SDS011;34170;54.364;18.582;2023-04-30T11:47:41;3.65;;;0.65;;
48363;SDS011;34170;54.364;18.582;2023-04-30T11:50:09;4.00;;;0.70;;
48363;SDS011;34170;54.364;18.582;2023-04-30T11:52:38;4.22;;;0.80;;
48363;SDS011;34170;54.364;18.582;2023-04-30T11:55:11;5.18;;;0.95;;
48363;SDS011;34170;54.364;18.582;2023-04-30T11:57:44;3.70;;;1.30;;
48363;SDS011;34170;54.364;18.582;2023-04-30T12:00:14;3.30;;;0.85;;
48363;SDS011;34170;54.364;18.582;2023-04-30T12:02:42;3.45;;;0.70;;
48363;SDS011;34170;54.364;18.582;2023-04-30T12:05:16;3.63;;;1.00;;
48363;SDS011;34170;54.364;18.582;2023-04-30T12:07:49;4.50;;;0.93;;
48363;SDS011;34170;54.364;18.582;2023-04-30T12:10:22;3.78;;;0.85;;
48363;SDS011;34170;54.364;18.582;2023-04-30T12:12:51;5.68;;;1.25;;
48363;SDS011;34170;54.364;18.582;2023-04-30T12:15:22;8.27;;;1.10;;
48363;SDS011;34170;54.364;18.582;2023-04-30T12:17:54;3.80;;;1.05;;
48363;SDS011;34170;54.364;18.582;2023-04-30T12:20:24;3.75;;;0.95;;
48363;SDS011;34170;54.364;18.582;2023-04-30T12:22:54;2.03;;;0.68;;
48363;SDS011;34170;54.364;18.582;2023-04-30T12:25:22;5.15;;;1.20;;
48363;SDS011;34170;54.364;18.582;2023-04-30T12:27:50;2.75;;;0.88;;
48363;SDS011;34170;54.364;18.582;2023-04-30T12:30:20;4.15;;;0.95;;
48363;SDS011;34170;54.364;18.582;2023-04-30T12:32:51;5.10;;;0.88;;
48363;SDS011;34170;54.364;18.582;2023-04-30T12:35:20;4.57;;;0.82;;
48363;SDS011;34170;54.364;18.582;2023-04-30T12:37:49;6.32;;;0.80;;
48363;SDS011;34170;54.364;18.582;2023-04-30T12:40:19;2.55;;;0.98;;
48363;SDS011;34170;54.364;18.582;2023-04-30T12:42:47;6.55;;;1.48;;
48363;SDS011;34170;54.364;18.582;2023-04-30T12:48:11;4.30;;;0.82;;
48363;SDS011;34170;54.364;18.582;2023-04-30T12:50:40;3.65;;;1.10;;
48363;SDS011;34170;54.364;18.582;2023-04-30T12:53:08;3.17;;;0.80;;
48363;SDS011;34170;54.364;18.582;2023-04-30T12:55:36;3.03;;;1.05;;
48363;SDS011;34170;54.364;18.582;2023-04-30T12:58:05;3.60;;;1.10;;
48363;SDS011;34170;54.364;18.582;2023-04-30T13:00:49;1.40;;;0.80;;
48363;SDS011;34170;54.364;18.582;2023-04-30T13:03:19;4.85;;;1.10;;
48363;SDS011;34170;54.364;18.582;2023-04-30T13:05:49;2.92;;;0.88;;
48363;SDS011;34170;54.364;18.582;2023-04-30T13:08:18;4.47;;;0.95;;
48363;SDS011;34170;54.364;18.582;2023-04-30T13:10:47;3.03;;;0.82;;
48363;SDS011;34170;54.364;18.582;2023-04-30T13:13:15;4.32;;;1.10;;
48363;SDS011;34170;54.364;18.582;2023-04-30T13:15:46;4.18;;;0.90;;
48363;SDS011;34170;54.364;18.582;2023-04-30T13:18:14;2.17;;;1.02;;
48363;SDS011;34170;54.364;18.582;2023-04-30T13:20:42;3.97;;;1.17;;
48363;SDS011;34170;54.364;18.582;2023-04-30T13:23:10;4.20;;;1.25;;
48363;SDS011;34170;54.364;18.582;2023-04-30T13:25:40;3.72;;;1.17;;
48363;SDS011;34170;54.364;18.582;2023-04-30T13:28:07;2.72;;;1.00;;
48363;SDS011;34170;54.364;18.582;2023-04-30T13:30:35;3.58;;;0.90;;
48363;SDS011;34170;54.364;18.582;2023-04-30T13:33:02;3.38;;;0.88;;
48363;SDS011;34170;54.364;18.582;2023-04-30T13:35:30;2.65;;;1.00;;
48363;SDS011;34170;54.364;18.582;2023-04-30T13:37:57;5.53;;;1.10;;
48363;SDS011;34170;54.364;18.582;2023-04-30T13:40:25;4.95;;;1.33;;
48363;SDS011;34170;54.364;18.582;2023-04-30T13:42:53;5.70;;;1.27;;
48363;SDS011;34170;54.364;18.582;2023-04-30T13:45:20;5.80;;;1.25;;
48363;SDS011;34170;54.364;18.582;2023-04-30T13:47:48;2.92;;;1.27;;
48363;SDS011;34170;54.364;18.582;2023-04-30T13:50:16;4.95;;;1.40;;
48363;SDS011;34170;54.364;18.582;2023-04-30T13:52:43;3.70;;;1.45;;
48363;SDS011;34170;54.364;18.582;2023-04-30T13:55:11;2.92;;;1.08;;
48363;SDS011;34170;54.364;18.582;2023-04-30T13:57:38;3.58;;;1.40;;
48363;SDS011;34170;54.364;18.582;2023-04-30T14:00:06;10.85;;;2.03;;
48363;SDS011;34170;54.364;18.582;2023-04-30T14:02:34;3.03;;;1.20;;
48363;SDS011;34170;54.364;18.582;2023-04-30T14:05:02;3.20;;;1.10;;
48363;SDS011;34170;54.364;18.582;2023-04-30T14:07:32;5.63;;;1.60;;
48363;SDS011;34170;54.364;18.582;2023-04-30T14:10:00;6.57;;;1.60;;
48363;SDS011;34170;54.364;18.582;2023-04-30T14:12:27;6.78;;;1.30;;
48363;SDS011;34170;54.364;18.582;2023-04-30T14:14:56;3.67;;;1.13;;
48363;SDS011;34170;54.364;18.582;2023-04-30T14:17:24;5.18;;;1.90;;
48363;SDS011;34170;54.364;18.582;2023-04-30T14:19:56;5.60;;;1.77;;
48363;SDS011;34170;54.364;18.582;2023-04-30T14:22:23;5.90;;;1.77;;
48363;SDS011;34170;54.364;18.582;2023-04-30T14:24:51;4.82;;;1.58;;
48363;SDS011;34170;54.364;18.582;2023-04-30T14:27:19;4.93;;;1.30;;
48363;SDS011;34170;54.364;18.582;2023-04-30T14:29:47;5.40;;;1.52;;
48363;SDS011;34170;54.364;18.582;2023-04-30T14:32:14;4.32;;;1.48;;
48363;SDS011;34170;54.364;18.582;2023-04-30T14:34:42;4.97;;;1.58;;
48363;SDS011;34170;54.364;18.582;2023-04-30T14:37:10;3.67;;;1.40;;
48363;SDS011;34170;54.364;18.582;2023-04-30T14:39:39;3.63;;;1.58;;
48363;SDS011;34170;54.364;18.582;2023-04-30T14:42:06;4.30;;;1.50;;
48363;SDS011;34170;54.364;18.582;2023-04-30T14:44:36;5.05;;;1.35;;
48363;SDS011;34170;54.364;18.582;2023-04-30T14:47:03;6.55;;;1.83;;
48363;SDS011;34170;54.364;18.582;2023-04-30T14:49:31;5.97;;;1.45;;
48363;SDS011;34170;54.364;18.582;2023-04-30T14:51:59;5.50;;;1.90;;
48363;SDS011;34170;54.364;18.582;2023-04-30T14:54:27;6.68;;;1.77;;
48363;SDS011;34170;54.364;18.582;2023-04-30T14:56:54;5.03;;;1.58;;
48363;SDS011;34170;54.364;18.582;2023-04-30T14:59:21;3.25;;;1.33;;
48363;SDS011;34170;54.364;18.582;2023-04-30T15:01:49;4.88;;;1.75;;
48363;SDS011;34170;54.364;18.582;2023-04-30T15:04:17;6.07;;;1.67;;
48363;SDS011;34170;54.364;18.582;2023-04-30T15:06:44;7.63;;;1.67;;
48363;SDS011;34170;54.364;18.582;2023-04-30T15:09:13;4.47;;;2.13;;
48363;SDS011;34170;54.364;18.582;2023-04-30T15:11:40;3.75;;;1.52;;
48363;SDS011;34170;54.364;18.582;2023-04-30T15:14:08;4.78;;;1.50;;